Time;durP1;ratioP1;P1;durP2;ratioP2;P2;SDS_P1;SDS_P2;PMS_P1;PMS_P2;Temp;Humidity;BMP_temperature;BMP_pressure;BME280_temperature;BME280_humidity;BME280_pressure;Samples;Min_cycle;Max_cycle;Signal;HPM_P1;HPM_P2
2022/12/12 00:02:22;;;;;;;22.60;14.37;;;1.60;99.90;;;;;;5053789;28;20708;-65
2022/12/12 00:04:48;;;;;;;13.80;12.40;;;1.60;99.90;;;;;;5034501;28;20175;-65
2022/12/12 00:07:14;;;;;;;17.90;13.73;;;1.60;99.90;;;;;;5034181;28;20176;-65
2022/12/12 00:09:39;;;;;;;21.20;12.50;;;1.50;99.90;;;;;;5051558;28;20212;-66
2022/12/12 00:12:05;;;;;;;23.37;12.60;;;1.50;99.90;;;;;;5053915;28;20684;-65
2022/12/12 00:14:31;;;;;;;18.53;13.70;;;1.50;99.90;;;;;;5037588;28;20267;-65
2022/12/12 00:16:56;;;;;;;13.87;11.70;;;1.40;99.90;;;;;;5034089;28;20254;-65
2022/12/12 00:19:22;;;;;;;15.77;13.90;;;1.40;99.90;;;;;;5047581;28;20269;-66
2022/12/12 00:21:48;;;;;;;14.07;12.60;;;1.40;99.90;;;;;;5053710;28;20221;-65
2022/12/12 00:24:14;;;;;;;16.23;14.53;;;1.30;99.90;;;;;;5039873;28;20294;-65
2022/12/12 00:26:40;;;;;;;14.33;12.67;;;1.30;99.90;;;;;;5033828;28;20258;-65
2022/12/12 00:29:06;;;;;;;15.50;14.00;;;1.40;99.90;;;;;;5044775;28;20171;-65
2022/12/12 00:31:32;;;;;;;12.77;11.60;;;1.30;99.90;;;;;;5053802;28;20644;-65
2022/12/12 00:33:58;;;;;;;15.37;13.63;;;1.30;99.90;;;;;;5043477;28;20242;-65
2022/12/12 00:36:26;;;;;;;25.43;13.60;;;1.30;99.90;;;;;;5033658;28;20205;-66
2022/12/12 00:38:53;;;;;;;12.27;11.17;;;1.30;99.90;;;;;;5041666;28;20256;-65
2022/12/12 00:41:20;;;;;;;24.03;12.33;;;1.30;99.90;;;;;;5053420;28;20206;-65
2022/12/12 00:43:46;;;;;;;16.27;11.37;;;1.20;99.90;;;;;;5045048;28;20204;-65
2022/12/12 00:46:20;;;;;;;13.03;11.77;;;1.20;99.90;;;;;;5033470;28;20262;-65
2022/12/12 00:48:45;;;;;;;19.07;13.83;;;1.30;99.90;;;;;;5040417;28;20707;-65
2022/12/12 00:51:16;;;;;;;16.93;12.97;;;1.30;99.90;;;;;;5053090;28;20257;-66
2022/12/12 00:53:42;;;;;;;14.23;12.20;;;1.30;99.90;;;;;;5046902;28;20207;-66
2022/12/12 00:56:08;;;;;;;14.20;12.80;;;1.20;99.90;;;;;;5033720;28;20176;-65
2022/12/12 00:58:34;;;;;;;13.30;11.97;;;1.20;99.90;;;;;;5019775;28;20175;-66
2022/12/12 01:01:05;;;;;;;13.10;11.63;;;1.30;99.90;;;;;;5052826;28;20202;-66
2022/12/12 01:03:35;;;;;;;15.93;11.67;;;1.30;99.90;;;;;;5048873;28;20195;-65
2022/12/12 01:06:01;;;;;;;14.13;12.77;;;1.30;99.90;;;;;;5033004;28;20203;-65
2022/12/12 01:08:27;;;;;;;14.37;12.90;;;1.30;99.90;;;;;;5035549;28;20761;-66
2022/12/12 01:10:53;;;;;;;17.97;13.30;;;1.30;99.90;;;;;;5052630;28;20175;-66
2022/12/12 01:13:18;;;;;;;14.23;12.80;;;1.30;99.90;;;;;;5051512;28;20695;-66
2022/12/12 01:15:44;;;;;;;18.10;12.97;;;1.30;99.90;;;;;;5032897;28;20167;-66
2022/12/12 01:18:09;;;;;;;17.00;12.10;;;1.30;99.90;;;;;;5032833;28;20241;-66
2022/12/12 01:20:35;;;;;;;18.90;13.03;;;1.30;99.90;;;;;;5051440;28;20218;-66
2022/12/12 01:23:01;;;;;;;13.87;12.20;;;1.30;99.90;;;;;;5052608;28;20206;-65
2022/12/12 01:25:26;;;;;;;12.43;11.33;;;1.20;99.90;;;;;;5034019;28;20179;-66
2022/12/12 01:27:52;;;;;;;12.93;11.80;;;1.20;99.90;;;;;;5032657;28;20176;-65
2022/12/12 01:30:20;;;;;;;13.43;11.87;;;1.20;99.90;;;;;;5048548;28;20523;-66
2022/12/12 01:32:46;;;;;;;19.40;12.53;;;1.10;99.90;;;;;;5052474;28;20199;-65
2022/12/12 01:35:11;;;;;;;11.90;10.80;;;1.10;99.90;;;;;;5037215;28;20175;-65
2022/12/12 01:37:39;;;;;;;13.47;11.33;;;1.00;99.90;;;;;;5032514;28;20524;-66
2022/12/12 01:40:07;;;;;;;15.80;12.13;;;1.00;99.90;;;;;;5045177;28;20207;-66
2022/12/12 01:42:33;;;;;;;12.93;11.63;;;0.90;99.90;;;;;;5051977;28;20195;-66
2022/12/12 01:44:59;;;;;;;14.50;12.03;;;0.90;99.90;;;;;;5039076;28;20183;-66
2022/12/12 01:47:25;;;;;;;14.47;11.60;;;0.90;99.90;;;;;;5031979;28;20183;-66
2022/12/12 01:50:03;;;;;;;14.63;12.37;;;0.90;99.90;;;;;;5043209;28;20518;-66
2022/12/12 01:52:37;;;;;;;11.67;10.47;;;0.90;99.90;;;;;;5052199;28;20597;-65
2022/12/12 01:55:04;;;;;;;11.83;10.67;;;1.00;99.90;;;;;;5039753;28;20543;-66
2022/12/12 01:57:38;;;;;;;12.53;11.17;;;1.00;99.90;;;;;;5032424;28;20176;-65
2022/12/12 02:00:07;;;;;;;15.13;11.97;;;1.00;99.90;;;;;;5043538;28;20640;-66
2022/12/12 02:02:33;;;;;;;17.93;13.57;;;0.90;99.90;;;;;;5052197;28;20182;-65
2022/12/12 02:05:04;;;;;;;11.47;10.40;;;0.90;99.90;;;;;;5040343;28;20199;-65
2022/12/12 02:07:29;;;;;;;14.90;11.07;;;0.90;99.90;;;;;;5032101;28;20183;-66
2022/12/12 02:09:55;;;;;;;13.53;10.07;;;0.90;99.90;;;;;;5038061;28;20186;-66
2022/12/12 02:12:20;;;;;;;10.53;9.50;;;0.90;99.90;;;;;;5037359;28;20545;-66
2022/12/12 02:14:49;;;;;;;13.93;12.03;;;0.90;99.90;;;;;;5032092;28;20245;-66
2022/12/12 02:17:28;;;;;;;11.27;10.20;;;0.80;99.90;;;;;;5032917;28;20262;-66
2022/12/12 02:20:12;;;;;;;14.23;11.70;;;0.80;99.90;;;;;;5039769;28;20210;-65
2022/12/12 02:22:55;;;;;;;12.93;11.60;;;0.80;99.90;;;;;;5052119;28;20207;-65
2022/12/12 02:26:03;;;;;;;11.30;10.30;;;0.80;99.90;;;;;;5051584;28;20171;-65
2022/12/12 02:28:43;;;;;;;16.83;11.27;;;0.80;99.90;;;;;;5051815;28;20174;-65
2022/12/12 02:31:21;;;;;;;13.83;12.53;;;0.80;99.90;;;;;;5014719;28;20179;-65
2022/12/12 02:33:47;;;;;;;10.70;9.90;;;0.80;99.90;;;;;;5031633;28;20195;-65
2022/12/12 02:36:26;;;;;;;13.43;11.60;;;0.80;99.90;;;;;;5031541;28;20171;-65
2022/12/12 02:39:18;;;;;;;11.60;10.43;;;0.80;99.90;;;;;;5031539;28;20167;-65
2022/12/12 02:41:53;;;;;;;13.27;11.90;;;0.80;99.90;;;;;;5011778;28;20176;-65
2022/12/12 02:44:56;;;;;;;15.00;10.90;;;0.70;99.90;;;;;;5011820;28;20692;-65
2022/12/12 02:47:28;;;;;;;12.73;11.40;;;0.70;99.90;;;;;;4981577;28;20191;-65
2022/12/12 02:49:57;;;;;;;13.93;12.03;;;0.80;99.90;;;;;;5025441;28;20181;-65
2022/12/12 02:52:23;;;;;;;11.20;10.17;;;0.70;99.90;;;;;;5051384;28;20198;-65
2022/12/12 02:54:49;;;;;;;11.50;10.23;;;0.70;99.90;;;;;;5051416;28;20659;-65
2022/12/12 02:57:25;;;;;;;11.37;10.37;;;0.70;99.90;;;;;;5051313;28;20182;-65
2022/12/12 03:00:13;;;;;;;11.17;10.00;;;0.70;99.90;;;;;;5049408;28;20199;-65
2022/12/12 03:07:45;;;;;;;17.30;10.47;;;0.70;99.90;;;;;;5035332;28;20467;-65
2022/12/12 03:08:43;;;;;;;9.80;9.10;;;0.70;99.90;;;;;;5055288;28;20181;-65
2022/12/12 03:11:16;;;;;;;10.17;9.17;;;0.60;99.90;;;;;;5039332;28;20382;-65
2022/12/12 03:13:51;;;;;;;10.67;9.43;;;0.50;99.90;;;;;;5035150;28;20192;-65
2022/12/12 03:16:58;;;;;;;10.57;9.67;;;0.50;99.90;;;;;;5043569;28;20175;-66
2022/12/12 03:19:32;;;;;;;9.83;8.93;;;0.50;99.90;;;;;;4974624;28;20218;-70
2022/12/12 03:22:26;;;;;;;11.93;10.93;;;0.40;99.90;;;;;;5009919;28;20665;-69
2022/12/12 03:25:14;;;;;;;11.00;9.93;;;0.40;99.90;;;;;;5009792;28;20174;-67
2022/12/12 03:28:04;;;;;;;10.17;9.33;;;0.40;99.90;;;;;;5056828;28;20211;-69
2022/12/12 03:30:36;;;;;;;10.87;9.90;;;0.30;99.90;;;;;;5048779;28;20203;-70
2022/12/12 03:33:25;;;;;;;10.50;9.60;;;0.30;99.90;;;;;;5038071;28;20195;-68
2022/12/12 03:36:20;;;;;;;9.80;8.83;;;0.20;99.90;;;;;;5032423;28;20175;-71
2022/12/12 03:38:55;;;;;;;9.73;9.00;;;0.20;99.90;;;;;;5053507;28;20281;-70
2022/12/12 03:41:26;;;;;;;12.87;8.80;;;0.10;99.90;;;;;;5025720;28;20234;-68
2022/12/12 03:44:04;;;;;;;11.07;9.97;;;0.10;99.90;;;;;;5021040;28;20713;-72
2022/12/12 03:46:45;;;;;;;16.93;9.77;;;0.10;99.90;;;;;;5035360;28;20181;-68
2022/12/12 03:49:35;;;;;;;10.90;9.53;;;0.00;99.90;;;;;;5057159;28;20209;-69
2022/12/12 03:52:28;;;;;;;9.97;8.80;;;-0.10;99.90;;;;;;5001201;28;21047;-72
2022/12/12 03:55:13;;;;;;;9.50;8.57;;;-0.10;99.90;;;;;;5005897;28;20180;-69
2022/12/12 03:57:47;;;;;;;10.93;9.47;;;-0.20;99.90;;;;;;5058669;28;20170;-68
2022/12/12 04:00:14;;;;;;;12.43;10.13;;;-0.30;99.90;;;;;;5053492;28;20195;-69
2022/12/12 04:03:10;;;;;;;9.93;9.03;;;-0.30;99.90;;;;;;5038652;28;20187;-71
2022/12/12 04:08:38;;;;;;;10.00;9.27;;;-0.40;99.90;;;;;;5058720;28;20219;-71
2022/12/12 04:14:41;;;;;;;9.77;8.60;;;-0.50;99.90;;;;;;5038978;28;20205;-71
2022/12/12 04:17:11;;;;;;;9.17;8.50;;;-0.40;99.90;;;;;;5003744;28;20196;-70
2022/12/12 04:23:30;;;;;;;10.93;10.03;;;-0.40;99.90;;;;;;5019845;28;20288;-67
2022/12/12 04:29:01;;;;;;;10.90;8.30;;;-0.40;99.90;;;;;;5060224;28;20225;-68
2022/12/12 04:31:32;;;;;;;10.07;9.23;;;-0.40;99.90;;;;;;5027031;28;20183;-71
2022/12/12 04:34:04;;;;;;;9.13;8.33;;;-0.40;99.90;;;;;;5038594;28;20274;-70
2022/12/12 04:36:32;;;;;;;9.13;8.30;;;-0.40;99.90;;;;;;5031953;28;20179;-72
2022/12/12 04:38:59;;;;;;;9.20;8.50;;;-0.40;99.90;;;;;;5056286;28;20760;-69
2022/12/12 04:41:27;;;;;;;9.43;8.37;;;-0.40;99.90;;;;;;5026997;28;20207;-69
2022/12/12 04:43:55;;;;;;;10.93;9.03;;;-0.40;99.90;;;;;;5021920;28;20791;-71
2022/12/12 04:46:24;;;;;;;9.47;8.67;;;-0.40;99.90;;;;;;5049163;28;20203;-70
2022/12/12 04:49:06;;;;;;;12.17;8.83;;;-0.40;99.90;;;;;;5056390;28;20485;-69
2022/12/12 04:51:40;;;;;;;11.17;9.97;;;-0.40;99.90;;;;;;5046301;28;20723;-69
2022/12/12 04:54:18;;;;;;;19.17;9.20;;;-0.40;99.90;;;;;;5039717;28;20607;-71
2022/12/12 04:56:48;;;;;;;9.97;9.03;;;-0.40;99.90;;;;;;5053992;28;20281;-69
2022/12/12 04:59:13;;;;;;;13.77;8.07;;;-0.40;99.90;;;;;;5060320;28;20232;-70
2022/12/12 05:01:58;;;;;;;7.73;7.33;;;-0.40;99.90;;;;;;5047725;28;20212;-69
2022/12/12 05:04:50;;;;;;;9.10;8.40;;;-0.50;99.90;;;;;;5037287;28;20168;-70
2022/12/12 05:07:44;;;;;;;10.60;9.87;;;-0.50;99.90;;;;;;5047461;28;20187;-70
2022/12/12 05:10:13;;;;;;;9.80;9.10;;;-0.50;99.90;;;;;;5037358;28;20190;-70
2022/12/12 05:12:51;;;;;;;10.47;9.27;;;-0.50;99.90;;;;;;5006736;28;20595;-71
2022/12/12 05:15:19;;;;;;;10.13;8.80;;;-0.60;99.90;;;;;;5039276;28;20179;-69
2022/12/12 05:17:59;;;;;;;9.80;9.00;;;-0.60;99.90;;;;;;5015940;28;20176;-70
2022/12/12 05:20:25;;;;;;;10.03;9.17;;;-0.50;99.90;;;;;;5018970;28;20215;-70
2022/12/12 05:22:50;;;;;;;9.80;8.90;;;-0.50;99.90;;;;;;5050615;28;20215;-68
2022/12/12 05:25:16;;;;;;;8.73;8.17;;;-0.50;99.90;;;;;;5039581;28;20171;-71
2022/12/12 05:27:42;;;;;;;9.03;8.47;;;-0.50;99.90;;;;;;5041389;28;20186;-73
2022/12/12 05:30:08;;;;;;;9.20;8.60;;;-0.50;99.90;;;;;;5057993;28;20175;-69
2022/12/12 05:32:34;;;;;;;9.93;9.03;;;-0.60;99.90;;;;;;5037235;28;20195;-69
2022/12/12 05:35:00;;;;;;;10.73;9.43;;;-0.50;99.90;;;;;;5039266;28;20641;-70
2022/12/12 05:37:25;;;;;;;10.60;9.43;;;-0.50;99.90;;;;;;5055169;28;20188;-70
2022/12/12 05:39:51;;;;;;;12.00;8.70;;;-0.60;99.90;;;;;;5059002;28;20193;-71
2022/12/12 05:42:17;;;;;;;11.73;10.57;;;-0.60;99.90;;;;;;5044783;28;20176;-69
2022/12/12 05:44:42;;;;;;;9.63;8.83;;;-0.60;99.90;;;;;;5040068;28;20164;-68
2022/12/12 05:47:08;;;;;;;10.17;9.23;;;-0.60;99.90;;;;;;5031769;28;20538;-69
2022/12/12 05:49:34;;;;;;;10.80;9.67;;;-0.60;99.90;;;;;;5054619;28;20252;-69
2022/12/12 05:52:00;;;;;;;9.10;8.50;;;-0.60;99.90;;;;;;5045517;28;20225;-69
2022/12/12 05:54:26;;;;;;;9.77;9.00;;;-0.60;99.90;;;;;;5022196;28;20179;-65
2022/12/12 05:56:52;;;;;;;10.70;9.73;;;-0.70;99.90;;;;;;5049537;28;20720;-65
2022/12/12 05:59:18;;;;;;;9.47;8.53;;;-0.70;99.90;;;;;;5040875;28;20206;-66
2022/12/12 06:01:43;;;;;;;9.17;8.47;;;-0.70;99.90;;;;;;5050271;28;20207;-66
2022/12/12 06:04:09;;;;;;;10.10;9.30;;;-0.80;99.90;;;;;;5039234;28;20179;-66
2022/12/12 06:06:35;;;;;;;8.47;7.97;;;-0.70;99.90;;;;;;5028879;28;20174;-66
2022/12/12 06:09:01;;;;;;;9.90;9.20;;;-0.80;99.90;;;;;;5059943;28;20167;-65
2022/12/12 06:11:26;;;;;;;9.33;8.63;;;-0.80;99.90;;;;;;5038078;28;20218;-66
2022/12/12 06:13:52;;;;;;;10.17;9.17;;;-0.80;99.90;;;;;;5021014;28;20490;-67
2022/12/12 06:16:19;;;;;;;10.43;9.40;;;-0.80;99.90;;;;;;5021102;28;20641;-65
2022/12/12 06:18:50;;;;;;;10.70;9.87;;;-0.80;99.90;;;;;;5038770;28;20585;-65
2022/12/12 06:21:16;;;;;;;9.10;8.60;;;-0.80;99.90;;;;;;5022117;28;20646;-65
2022/12/12 06:23:41;;;;;;;10.07;9.30;;;-0.80;99.90;;;;;;5051473;28;20301;-65
2022/12/12 06:26:09;;;;;;;9.87;8.67;;;-0.80;99.90;;;;;;5049786;28;20175;-65
2022/12/12 06:28:36;;;;;;;10.43;9.43;;;-0.80;99.90;;;;;;5031686;28;20175;-65
2022/12/12 06:31:02;;;;;;;8.33;7.80;;;-0.80;99.90;;;;;;5032025;28;20238;-65
2022/12/12 06:33:30;;;;;;;9.50;8.60;;;-0.80;99.90;;;;;;5051329;28;20190;-65
2022/12/12 06:36:15;;;;;;;13.70;9.43;;;-0.80;99.90;;;;;;5051461;28;20210;-65
2022/12/12 06:38:40;;;;;;;9.77;8.93;;;-0.80;99.90;;;;;;4994299;28;20258;-65
2022/12/12 06:41:11;;;;;;;10.03;9.17;;;-0.90;99.90;;;;;;5011971;28;20215;-65
2022/12/12 06:43:37;;;;;;;11.23;10.00;;;-0.90;99.90;;;;;;5051328;28;20199;-65
2022/12/12 06:46:06;;;;;;;9.63;8.73;;;-0.90;99.90;;;;;;5033395;28;20217;-65
2022/12/12 06:48:33;;;;;;;11.37;9.40;;;-1.00;99.90;;;;;;5032660;28;20183;-65
2022/12/12 06:50:58;;;;;;;9.77;9.03;;;-1.00;99.90;;;;;;5051024;28;20724;-65
2022/12/12 06:53:25;;;;;;;9.43;8.83;;;-1.10;99.90;;;;;;5031815;28;20363;-65
2022/12/12 06:55:50;;;;;;;8.30;7.80;;;-1.10;99.90;;;;;;5031344;28;20183;-66
2022/12/12 06:58:16;;;;;;;10.50;9.53;;;-1.20;99.90;;;;;;5030535;28;20188;-66
2022/12/12 07:00:42;;;;;;;9.83;9.03;;;-1.30;99.90;;;;;;5050930;28;20249;-65
2022/12/12 07:03:11;;;;;;;10.30;9.50;;;-1.30;99.90;;;;;;5017257;28;20233;-65
2022/12/12 07:05:36;;;;;;;10.37;9.47;;;-1.40;99.90;;;;;;5031219;28;20542;-65
2022/12/12 07:08:02;;;;;;;10.23;9.30;;;-1.40;99.90;;;;;;5045221;28;20179;-65
2022/12/12 07:10:29;;;;;;;10.53;9.73;;;-1.40;99.90;;;;;;5032944;28;20627;-65
2022/12/12 07:12:55;;;;;;;9.57;8.80;;;-1.40;99.90;;;;;;5036999;28;20207;-66
2022/12/12 07:15:21;;;;;;;10.37;9.17;;;-1.40;99.90;;;;;;5031185;28;20179;-65
2022/12/12 07:17:49;;;;;;;14.53;10.87;;;-1.30;99.90;;;;;;5025796;28;20189;-65
2022/12/12 07:20:15;;;;;;;10.17;9.33;;;-1.30;99.90;;;;;;5050399;28;20198;-65
2022/12/12 07:22:41;;;;;;;10.53;9.73;;;-1.20;99.90;;;;;;5048610;28;20628;-65
2022/12/12 07:25:08;;;;;;;12.23;9.00;;;-1.20;99.90;;;;;;5032856;28;20668;-65
2022/12/12 07:27:34;;;;;;;10.20;9.33;;;-1.10;99.90;;;;;;5032535;28;20171;-65
2022/12/12 07:29:59;;;;;;;11.23;10.33;;;-1.10;99.90;;;;;;5050383;28;20635;-66
2022/12/12 07:32:25;;;;;;;9.03;8.33;;;-1.10;99.90;;;;;;5024600;28;20203;-65
2022/12/12 07:34:51;;;;;;;11.17;9.50;;;-1.00;99.90;;;;;;5015579;28;20191;-66
2022/12/12 07:37:16;;;;;;;11.93;10.80;;;-1.00;99.90;;;;;;5032642;28;20569;-66
2022/12/12 07:39:42;;;;;;;10.67;9.77;;;-1.00;99.90;;;;;;5031890;28;20187;-66
2022/12/12 07:42:08;;;;;;;9.87;8.93;;;-1.00;99.90;;;;;;5030614;28;20255;-66
2022/12/12 07:44:34;;;;;;;10.03;8.70;;;-1.00;99.90;;;;;;5033045;28;20247;-66
2022/12/12 07:47:00;;;;;;;8.63;8.03;;;-1.00;99.90;;;;;;5053097;28;20178;-66
2022/12/12 07:49:27;;;;;;;10.43;9.67;;;-1.00;99.90;;;;;;5027619;28;20190;-66
2022/12/12 07:51:53;;;;;;;9.47;8.87;;;-0.90;99.90;;;;;;5034161;28;20175;-66
2022/12/12 07:54:19;;;;;;;8.87;7.90;;;-0.90;99.90;;;;;;5022763;28;20219;-66
2022/12/12 07:56:45;;;;;;;9.33;8.67;;;-0.90;99.90;;;;;;5036285;28;20536;-66
2022/12/12 07:59:11;;;;;;;9.83;8.97;;;-0.90;99.90;;;;;;5048097;28;20199;-66
2022/12/12 08:01:37;;;;;;;11.17;10.07;;;-0.80;99.90;;;;;;5016162;28;20216;-66
2022/12/12 08:04:03;;;;;;;9.73;8.87;;;-0.80;99.90;;;;;;5019621;28;20202;-66
2022/12/12 08:06:29;;;;;;;8.90;8.30;;;-0.80;99.90;;;;;;5053793;28;20190;-66
2022/12/12 08:08:55;;;;;;;10.37;9.60;;;-0.90;99.90;;;;;;5025253;28;20188;-66
2022/12/12 08:11:22;;;;;;;9.40;8.57;;;-0.90;99.90;;;;;;5015643;28;20561;-66
2022/12/12 08:13:48;;;;;;;10.83;9.23;;;-0.90;99.90;;;;;;5021116;28;20213;-66
2022/12/12 08:16:18;;;;;;;10.23;9.07;;;-0.90;99.90;;;;;;5022702;28;20581;-66
2022/12/12 08:18:44;;;;;;;16.40;9.67;;;-0.90;99.90;;;;;;5015921;28;20186;-66
2022/12/12 08:21:11;;;;;;;10.00;9.10;;;-0.80;99.90;;;;;;5012195;28;20438;-66
2022/12/12 08:23:38;;;;;;;9.43;8.60;;;-0.90;99.90;;;;;;5039038;23;20664;-67
2022/12/12 08:26:10;;;;;;;9.53;8.83;;;-0.80;99.90;;;;;;5035001;28;20178;-66
2022/12/12 08:28:36;;;;;;;9.40;8.70;;;-0.80;99.90;;;;;;5033914;28;20175;-67
2022/12/12 08:31:02;;;;;;;9.03;8.47;;;-0.80;99.90;;;;;;5033176;28;20189;-67
2022/12/12 08:33:28;;;;;;;8.70;8.10;;;-0.80;99.90;;;;;;5033506;28;20553;-67
2022/12/12 08:35:53;;;;;;;8.80;8.00;;;-0.80;99.90;;;;;;5033762;28;20246;-67
2022/12/12 08:38:19;;;;;;;8.93;8.23;;;-0.90;99.90;;;;;;5033280;28;20175;-66
2022/12/12 08:40:45;;;;;;;8.80;8.27;;;-0.80;99.90;;;;;;5033250;28;20204;-66
2022/12/12 08:43:11;;;;;;;9.13;8.53;;;-0.80;99.90;;;;;;5018602;28;20208;-66
2022/12/12 08:45:37;;;;;;;12.33;9.53;;;-0.80;99.90;;;;;;5013199;28;20219;-65
2022/12/12 08:48:05;;;;;;;9.07;8.33;;;-0.90;99.90;;;;;;5008931;28;20208;-67
2022/12/12 08:50:31;;;;;;;8.20;7.67;;;-0.80;99.90;;;;;;5012934;28;20223;-66
2022/12/12 08:52:56;;;;;;;9.97;8.90;;;-0.70;99.90;;;;;;5013203;28;20246;-67
2022/12/12 08:55:22;;;;;;;8.27;7.47;;;-0.50;99.90;;;;;;5011748;28;20547;-67
2022/12/12 08:57:47;;;;;;;9.83;9.03;;;0.00;99.90;;;;;;5017443;28;20207;-67
2022/12/12 09:00:13;;;;;;;10.93;9.83;;;0.60;99.90;;;;;;5015474;28;20274;-66
2022/12/12 09:02:39;;;;;;;11.13;9.77;;;1.20;99.90;;;;;;5013217;28;20203;-67
2022/12/12 09:05:05;;;;;;;9.63;8.63;;;1.90;99.90;;;;;;5013143;28;20176;-67
2022/12/12 09:07:30;;;;;;;9.80;8.83;;;2.50;99.90;;;;;;5013514;28;20262;-67
2022/12/12 09:09:56;;;;;;;11.30;9.90;;;3.00;20.10;;;;;;5012973;28;20184;-67
2022/12/12 09:12:22;;;;;;;13.37;10.13;;;3.40;1.00;;;;;;5012226;28;20180;-67
2022/12/12 09:14:47;;;;;;;9.33;8.47;;;3.80;1.00;;;;;;5029953;28;20573;-67
2022/12/12 09:17:13;;;;;;;13.03;9.57;;;4.30;1.00;;;;;;5017919;28;20225;-67
2022/12/12 09:19:38;;;;;;;12.40;9.20;;;4.80;1.00;;;;;;5032597;28;20298;-67
2022/12/12 09:22:04;;;;;;;10.13;8.10;;;5.10;34.30;;;;;;5021682;28;20176;-67
2022/12/12 09:24:30;;;;;;;8.93;8.03;;;5.50;99.90;;;;;;5012742;28;20208;-66
2022/12/12 09:26:55;;;;;;;9.23;7.97;;;5.50;1.00;;;;;;5013094;28;20186;-67
2022/12/12 09:29:21;;;;;;;8.60;7.83;;;5.60;1.00;;;;;;5012338;28;20211;-68
2022/12/12 09:31:46;;;;;;;8.63;7.10;;;5.80;1.00;;;;;;5012689;28;20189;-68
2022/12/12 09:34:12;;;;;;;8.47;7.57;;;5.80;1.00;;;;;;5012690;28;20196;-67
2022/12/12 09:36:38;;;;;;;8.17;7.47;;;5.80;1.00;;;;;;5013062;28;20184;-66
2022/12/12 09:39:03;;;;;;;11.07;7.57;;;5.90;1.00;;;;;;5013067;28;20613;-66
2022/12/12 09:41:30;;;;;;;8.63;7.70;;;6.10;1.00;;;;;;5012729;28;20251;-67
2022/12/12 09:44:18;;;;;;;8.13;7.33;;;6.30;1.00;;;;;;5012604;28;20663;-67
2022/12/12 09:47:01;;;;;;;8.90;7.43;;;6.50;1.00;;;;;;5013390;28;20172;-68
2022/12/12 09:49:45;;;;;;;8.70;7.80;;;6.60;1.00;;;;;;5013423;28;20172;-68
2022/12/12 09:52:17;;;;;;;10.07;8.50;;;6.40;1.00;;;;;;5012895;28;20522;-67
2022/12/12 09:54:43;;;;;;;9.30;8.20;;;6.40;1.00;;;;;;5012328;28;20202;-68
2022/12/12 09:57:14;;;;;;;8.13;7.43;;;6.30;1.00;;;;;;5012540;28;20259;-68
2022/12/12 09:59:44;;;;;;;8.93;8.13;;;6.30;1.00;;;;;;5012207;28;20176;-68
2022/12/12 10:02:39;;;;;;;10.60;8.10;;;6.20;1.00;;;;;;5012505;28;20178;-66
2022/12/12 10:05:28;;;;;;;9.17;8.03;;;6.20;1.00;;;;;;5012516;28;20178;-66
2022/12/12 10:08:23;;;;;;;8.93;7.53;;;6.10;1.00;;;;;;5012638;28;20180;-67
2022/12/12 10:10:54;;;;;;;11.87;7.50;;;6.20;1.00;;;;;;5012520;28;20542;-68
2022/12/12 10:13:24;;;;;;;10.10;7.37;;;6.20;1.00;;;;;;5013296;28;20203;-66
2022/12/12 10:15:57;;;;;;;11.20;7.87;;;6.40;1.00;;;;;;5031476;28;20210;-66
2022/12/12 10:18:33;;;;;;;8.40;7.50;;;6.50;1.00;;;;;;5036803;28;20203;-67
2022/12/12 10:21:03;;;;;;;10.43;8.37;;;6.50;1.00;;;;;;5028983;28;20195;-66
2022/12/12 10:23:43;;;;;;;8.27;7.03;;;6.40;1.00;;;;;;5026939;28;20222;-67
2022/12/12 10:26:17;;;;;;;11.37;8.20;;;6.10;1.00;;;;;;5026756;28;20180;-67
2022/12/12 10:28:43;;;;;;;9.87;8.00;;;5.90;1.00;;;;;;5025423;28;20251;-66
2022/12/12 10:31:09;;;;;;;8.93;8.13;;;5.80;1.00;;;;;;5023482;28;20183;-66
2022/12/12 10:33:53;;;;;;;12.10;8.30;;;5.90;1.00;;;;;;5026912;28;20204;-65
2022/12/12 10:36:37;;;;;;;11.13;8.73;;;5.90;1.00;;;;;;5015935;28;20684;-67
2022/12/12 10:39:06;;;;;;;10.30;7.93;;;5.90;1.00;;;;;;5011695;28;20637;-65
2022/12/12 10:41:37;;;;;;;8.30;7.43;;;5.70;1.00;;;;;;5011377;28;20208;-66
2022/12/12 10:44:14;;;;;;;8.07;7.37;;;5.60;1.00;;;;;;5010818;28;20204;-66
2022/12/12 10:46:48;;;;;;;10.97;8.07;;;5.50;1.00;;;;;;5011828;28;20215;-67
2022/12/12 10:49:19;;;;;;;10.27;9.17;;;5.30;1.00;;;;;;5011195;28;20253;-67
2022/12/12 10:51:47;;;;;;;11.23;8.77;;;5.20;1.00;;;;;;5011524;28;20196;-67
2022/12/12 10:54:17;;;;;;;10.87;8.30;;;5.00;1.00;;;;;;5011356;28;20609;-66
2022/12/12 10:57:07;;;;;;;11.23;7.73;;;4.90;1.00;;;;;;5011230;28;20191;-67
2022/12/12 10:59:48;;;;;;;15.27;9.50;;;4.80;1.00;;;;;;5009876;28;20223;-67
2022/12/12 11:02:35;;;;;;;8.77;7.90;;;4.70;1.00;;;;;;5011219;28;20689;-66
2022/12/12 11:05:04;;;;;;;9.23;8.40;;;4.70;1.00;;;;;;5010133;28;20184;-66
2022/12/12 11:07:31;;;;;;;12.60;8.90;;;4.60;1.00;;;;;;5011854;28;20183;-66
2022/12/12 11:09:57;;;;;;;9.30;8.40;;;4.70;1.00;;;;;;5009968;28;20541;-65
2022/12/12 11:12:32;;;;;;;8.60;7.50;;;4.90;1.00;;;;;;5012580;28;20465;-66
2022/12/12 11:15:05;;;;;;;9.13;8.23;;;5.20;1.00;;;;;;5012688;28;20254;-66
2022/12/12 11:17:32;;;;;;;8.90;8.20;;;5.40;1.00;;;;;;5011189;28;20175;-66
2022/12/12 11:20:01;;;;;;;7.87;7.17;;;5.70;1.00;;;;;;5009635;28;20204;-67
2022/12/12 11:22:29;;;;;;;10.20;7.03;;;6.00;1.00;;;;;;5014891;28;20246;-66
2022/12/12 11:24:55;;;;;;;12.27;8.27;;;6.30;1.00;;;;;;5015370;28;20191;-66
2022/12/12 11:27:22;;;;;;;11.47;8.40;;;6.40;1.00;;;;;;5015300;28;20467;-67
2022/12/12 11:29:54;;;;;;;9.40;8.50;;;6.50;1.00;;;;;;5014887;28;20184;-67
2022/12/12 11:32:24;;;;;;;13.40;9.23;;;6.40;1.00;;;;;;5014681;28;20284;-66
2022/12/12 11:34:53;;;;;;;13.17;9.33;;;6.40;1.00;;;;;;5015150;28;20234;-67
2022/12/12 11:37:23;;;;;;;9.43;8.57;;;6.40;1.00;;;;;;5014989;28;20168;-66
2022/12/12 11:39:51;;;;;;;10.27;8.80;;;6.30;1.00;;;;;;5014409;28;20219;-67
2022/12/12 11:42:21;;;;;;;9.77;8.77;;;6.20;1.00;;;;;;5014745;28;20179;-67
2022/12/12 11:45:07;;;;;;;11.37;7.83;;;6.10;1.00;;;;;;5014392;28;20187;-66
2022/12/12 11:47:40;;;;;;;10.23;7.87;;;6.20;1.00;;;;;;5015130;28;20176;-67
2022/12/12 11:50:22;;;;;;;8.37;7.73;;;6.30;1.00;;;;;;5014183;28;20195;-66
2022/12/12 11:52:49;;;;;;;9.30;7.67;;;6.40;1.00;;;;;;5014873;28;20262;-67
2022/12/12 11:55:18;;;;;;;9.03;7.47;;;6.40;1.00;;;;;;5013532;28;20559;-67
2022/12/12 11:57:52;;;;;;;8.60;7.80;;;6.30;1.00;;;;;;5014771;28;20642;-66
2022/12/12 12:00:20;;;;;;;15.37;7.73;;;6.20;1.00;;;;;;5013888;28;20207;-67
2022/12/12 12:03:13;;;;;;;9.23;6.87;;;6.00;1.00;;;;;;5014093;28;20200;-67
2022/12/12 12:05:55;;;;;;;10.70;7.40;;;5.90;1.00;;;;;;5014853;28;20172;-67
2022/12/12 12:08:52;;;;;;;10.90;7.53;;;5.90;1.00;;;;;;5014185;28;20208;-66
2022/12/12 12:11:27;;;;;;;8.87;7.73;;;6.00;1.00;;;;;;4985445;28;20188;-66
2022/12/12 12:14:23;;;;;;;8.27;7.60;;;6.10;1.00;;;;;;4995089;28;20330;-67
2022/12/12 12:17:14;;;;;;;9.20;8.07;;;6.40;1.00;;;;;;4998174;28;20176;-67
2022/12/12 12:20:02;;;;;;;11.13;8.17;;;6.50;1.00;;;;;;5014169;28;20176;-68
2022/12/12 12:22:37;;;;;;;7.73;7.03;;;6.20;1.00;;;;;;5012758;28;20176;-67
2022/12/12 12:25:45;;;;;;;8.63;7.13;;;5.90;1.00;;;;;;5014627;28;20255;-67
2022/12/12 12:28:33;;;;;;;10.10;8.37;;;5.60;1.00;;;;;;5013870;28;20558;-66
2022/12/12 12:31:17;;;;;;;8.60;7.83;;;5.30;1.00;;;;;;5013997;28;20179;-67
2022/12/12 12:34:10;;;;;;;7.47;6.80;;;5.10;1.00;;;;;;5014219;28;20208;-68
2022/12/12 12:36:58;;;;;;;10.37;7.53;;;5.10;1.00;;;;;;5014578;28;20665;-69
2022/12/12 12:39:35;;;;;;;12.87;8.37;;;5.00;1.00;;;;;;4994675;28;20272;-68
2022/12/12 12:42:23;;;;;;;10.43;8.03;;;5.10;1.00;;;;;;4995530;28;20243;-68
2022/12/12 12:45:03;;;;;;;13.87;8.83;;;5.10;1.00;;;;;;5013893;28;20169;-67
2022/12/12 12:47:43;;;;;;;9.97;7.87;;;5.00;1.00;;;;;;5013659;28;20204;-68
2022/12/12 12:50:20;;;;;;;9.20;8.13;;;5.00;1.00;;;;;;5013418;28;20176;-69
2022/12/12 12:53:23;;;;;;;10.47;7.37;;;5.20;1.00;;;;;;5013549;28;20631;-68
2022/12/12 12:55:54;;;;;;;10.57;7.67;;;5.30;1.00;;;;;;5013738;28;20187;-68
2022/12/12 12:58:24;;;;;;;8.93;8.03;;;5.50;1.00;;;;;;5013301;28;20180;-67
2022/12/12 13:01:04;;;;;;;8.83;7.87;;;5.60;1.00;;;;;;5013454;28;20211;-68
2022/12/12 13:03:41;;;;;;;11.47;7.77;;;5.80;1.00;;;;;;5013307;28;20210;-66
2022/12/12 13:06:13;;;;;;;8.77;7.67;;;5.80;1.00;;;;;;5013399;28;20255;-67
2022/12/12 13:09:03;;;;;;;10.30;7.60;;;5.80;1.00;;;;;;5013236;28;20184;-67
2022/12/12 13:11:38;;;;;;;9.03;8.03;;;5.70;1.00;;;;;;5013313;28;20194;-67
2022/12/12 13:14:22;;;;;;;10.23;7.53;;;5.60;1.00;;;;;;5013064;28;20571;-67
2022/12/12 13:16:49;;;;;;;10.93;8.03;;;5.50;1.00;;;;;;5013131;28;20263;-66
2022/12/12 13:19:28;;;;;;;12.60;8.53;;;5.40;1.00;;;;;;5012681;28;20542;-67
2022/12/12 13:22:23;;;;;;;10.20;9.13;;;5.20;1.00;;;;;;5013048;28;20204;-67
2022/12/12 13:24:49;;;;;;;9.37;7.53;;;5.10;1.00;;;;;;5013318;28;20191;-67
2022/12/12 13:27:28;;;;;;;8.90;8.00;;;5.10;1.00;;;;;;5013000;28;20230;-67
2022/12/12 13:29:59;;;;;;;10.13;8.13;;;5.20;1.00;;;;;;5010958;28;20183;-67